createdAt,value
2022-10-05T00:01:34.611Z,5.95
2022-10-05T00:04:16.513Z,5.82
2022-10-05T00:06:51.217Z,6.28
2022-10-05T00:09:22.146Z,6.35
2022-10-05T00:11:52.250Z,5.93
2022-10-05T00:14:23.060Z,5.95
2022-10-05T00:16:57.727Z,6.50
2022-10-05T00:19:33.762Z,6.47
2022-10-05T00:22:20.752Z,7.03
2022-10-05T00:24:55.686Z,6.63
2022-10-05T00:27:39.209Z,7.20
2022-10-05T00:30:22.227Z,6.30
2022-10-05T00:32:56.055Z,6.68
2022-10-05T00:35:37.552Z,6.53
2022-10-05T00:38:06.758Z,5.88
2022-10-05T00:40:46.848Z,5.93
2022-10-05T00:43:58.360Z,6.22
2022-10-05T00:46:34.559Z,6.13
2022-10-05T00:49:17.711Z,6.35
2022-10-05T00:51:59.419Z,6.03
2022-10-05T00:54:52.453Z,6.55
2022-10-05T01:01:15.458Z,6.40
2022-10-05T01:04:09.196Z,6.38
2022-10-05T01:07:06.407Z,6.70
2022-10-05T01:10:06.653Z,6.50
2022-10-05T01:12:48.541Z,6.45
2022-10-05T01:15:29.465Z,6.80
2022-10-05T01:18:13.475Z,6.22
2022-10-05T01:20:53.925Z,6.43
2022-10-05T01:23:47.852Z,7.15
2022-10-05T01:26:53.997Z,6.60
2022-10-05T01:29:29.668Z,6.68
2022-10-05T01:32:20.465Z,7.47
2022-10-05T01:35:17.087Z,6.40
2022-10-05T01:37:58.971Z,6.43
2022-10-05T01:40:46.192Z,6.65
2022-10-05T01:46:50.607Z,6.82
2022-10-05T01:49:56.698Z,7.30
2022-10-05T01:59:16.545Z,7.45
2022-10-05T02:02:00.552Z,7.28
2022-10-05T02:07:31.367Z,7.20
2022-10-05T02:13:44.484Z,7.57
2022-10-05T02:16:21.303Z,7.13
2022-10-05T02:21:22.938Z,6.70
2022-10-05T02:23:57.199Z,8.10
2022-10-05T02:26:28.345Z,8.23
2022-10-05T02:29:10.609Z,7.75
2022-10-05T02:34:39.048Z,7.57
2022-10-05T02:44:07.464Z,8.20
2022-10-05T02:46:50.757Z,8.07
2022-10-05T02:49:28.941Z,8.30
2022-10-05T02:55:25.669Z,8.00
2022-10-05T02:58:09.088Z,8.80
2022-10-05T03:00:48.578Z,8.02
2022-10-05T03:03:31.533Z,8.52
2022-10-05T03:06:04.186Z,8.30
2022-10-05T03:08:43.604Z,8.27
2022-10-05T03:12:05.367Z,8.68
2022-10-05T03:14:56.862Z,8.80
2022-10-05T03:17:45.961Z,7.53
2022-10-05T03:20:58.524Z,8.75
2022-10-05T03:23:45.277Z,8.73
2022-10-05T03:26:34.234Z,8.40
2022-10-05T03:29:43.068Z,8.34
2022-10-05T03:32:31.006Z,7.30
2022-10-05T03:35:06.491Z,8.25
2022-10-05T03:37:40.088Z,7.88
2022-10-05T03:40:35.250Z,8.20
2022-10-05T03:43:21.881Z,7.43
2022-10-05T03:49:53.175Z,7.37
2022-10-05T03:52:37.097Z,8.05
2022-10-05T03:55:21.227Z,8.45
2022-10-05T03:57:53.079Z,7.50
2022-10-05T04:00:23.941Z,8.00
2022-10-05T04:06:43.836Z,7.97
2022-10-05T04:09:24.865Z,7.88
2022-10-05T04:12:07.202Z,7.68
2022-10-05T04:14:46.647Z,7.57
2022-10-05T04:17:41.425Z,7.32
2022-10-05T04:20:43.829Z,7.95
2022-10-05T04:23:30.335Z,7.60
2022-10-05T04:26:16.155Z,7.90
2022-10-05T04:29:05.449Z,7.32
2022-10-05T04:32:00.343Z,7.55
2022-10-05T04:34:56.349Z,7.97
2022-10-05T04:37:37.257Z,7.78
2022-10-05T04:40:28.908Z,7.72
2022-10-05T04:43:03.893Z,8.18
2022-10-05T04:45:35.777Z,8.68
2022-10-05T04:48:11.217Z,7.65
2022-10-05T04:50:46.203Z,7.67
2022-10-05T04:53:31.724Z,8.00
2022-10-05T04:56:12.773Z,7.50
2022-10-05T04:58:57.659Z,7.90
2022-10-05T05:05:00.157Z,7.38
2022-10-05T05:07:45.405Z,8.18
2022-10-05T05:16:46.817Z,8.20
2022-10-05T05:19:47.444Z,8.70
2022-10-05T05:22:40.262Z,7.78
2022-10-05T05:25:27.123Z,7.88
2022-10-05T05:28:01.805Z,8.55
2022-10-05T05:30:49.313Z,8.68
2022-10-05T05:33:54.660Z,8.80
2022-10-05T05:36:34.566Z,8.23
2022-10-05T05:39:48.084Z,7.65
2022-10-05T05:42:32.436Z,8.65
2022-10-05T05:45:15.731Z,8.43
2022-10-05T05:47:52.386Z,9.05
2022-10-05T05:50:48.490Z,8.50
2022-10-05T05:56:57.749Z,8.85
2022-10-05T05:59:52.491Z,8.98
2022-10-05T06:02:29.110Z,10.00
2022-10-05T06:05:07.438Z,9.83
2022-10-05T06:07:38.511Z,10.23
2022-10-05T06:10:48.757Z,10.27
2022-10-05T06:13:27.062Z,10.90
2022-10-05T06:16:15.927Z,12.48
2022-10-05T06:18:54.511Z,12.07
2022-10-05T06:21:29.724Z,12.35
2022-10-05T06:24:38.376Z,12.65
2022-10-05T06:27:26.185Z,10.90
2022-10-05T06:30:07.656Z,11.15
2022-10-05T06:32:52.109Z,11.23
2022-10-05T06:35:41.620Z,11.38
2022-10-05T06:38:35.258Z,11.05
2022-10-05T06:41:13.251Z,10.52
2022-10-05T06:47:23.090Z,10.32
2022-10-05T06:54:23.672Z,11.00
2022-10-05T06:57:13.217Z,9.93
2022-10-05T06:59:59.980Z,11.07
2022-10-05T07:02:48.440Z,10.43
2022-10-05T07:05:29.773Z,10.63
2022-10-05T07:08:02.435Z,10.50
2022-10-05T07:10:47.650Z,10.77
2022-10-05T07:13:53.353Z,10.38
2022-10-05T07:16:34.776Z,9.88
2022-10-05T07:19:29.402Z,10.65
2022-10-05T07:22:23.514Z,9.50
2022-10-05T07:25:10.129Z,8.70
2022-10-05T07:28:00.065Z,8.35
2022-10-05T07:30:31.946Z,8.70
2022-10-05T07:33:11.182Z,7.90
2022-10-05T07:39:23.488Z,7.75
2022-10-05T07:42:10.652Z,8.45
2022-10-05T07:44:48.711Z,7.75
2022-10-05T07:48:00.036Z,8.60
2022-10-05T07:50:46.565Z,8.23
2022-10-05T07:53:39.971Z,8.13
2022-10-05T07:56:29.996Z,7.68
2022-10-05T07:59:04.660Z,8.07
2022-10-05T08:01:38.066Z,7.32
2022-10-05T08:04:25.768Z,8.15
2022-10-05T08:07:02.340Z,7.35
2022-10-05T08:09:41.777Z,7.25
2022-10-05T08:12:36.756Z,7.13
2022-10-05T08:15:28.987Z,8.38
2022-10-05T08:21:40.063Z,7.28
2022-10-05T08:24:29.912Z,6.93
2022-10-05T08:27:31.453Z,7.25
2022-10-05T08:30:13.038Z,7.53
2022-10-05T08:33:05.580Z,7.00
2022-10-05T08:35:44.446Z,7.22
2022-10-05T08:38:28.646Z,7.50
2022-10-05T08:41:03.381Z,7.32
2022-10-05T08:43:47.341Z,7.30
2022-10-05T08:46:19.029Z,7.00
2022-10-05T08:49:34.258Z,6.20
2022-10-05T08:52:15.911Z,6.90
2022-10-05T08:55:11.548Z,6.80
2022-10-05T08:57:55.639Z,6.00
2022-10-05T09:00:29.987Z,5.75
2022-10-05T09:03:13.710Z,6.07
2022-10-05T09:05:48.702Z,5.82
2022-10-05T09:08:30.243Z,6.30
2022-10-05T09:11:23.844Z,6.10
2022-10-05T09:14:11.039Z,6.03
2022-10-05T09:16:56.225Z,6.10
2022-10-05T09:19:49.806Z,5.68
2022-10-05T09:22:52.140Z,6.13
2022-10-05T09:25:32.858Z,6.13
2022-10-05T09:28:38.374Z,6.00
2022-10-05T09:31:39.479Z,6.18
2022-10-05T09:34:32.884Z,5.43
2022-10-05T09:37:23.051Z,5.07
2022-10-05T09:40:22.310Z,5.88
2022-10-05T09:43:17.746Z,5.38
2022-10-05T09:45:49.580Z,5.47
2022-10-05T09:48:40.693Z,5.25
2022-10-05T09:51:15.510Z,5.00
2022-10-05T09:54:15.356Z,4.82
2022-10-05T09:56:55.970Z,5.28
2022-10-05T10:03:24.996Z,4.53
2022-10-05T10:06:14.290Z,4.47
2022-10-05T10:12:22.621Z,4.65
2022-10-05T10:15:02.494Z,4.80
2022-10-05T10:17:55.408Z,4.93
2022-10-05T10:20:45.423Z,4.22
2022-10-05T10:23:36.502Z,4.38
2022-10-05T10:26:19.770Z,4.40
2022-10-05T10:28:48.630Z,4.82
2022-10-05T10:31:31.459Z,4.10
2022-10-05T10:34:35.245Z,5.43
2022-10-05T10:37:23.509Z,4.30
2022-10-05T10:40:35.288Z,4.32
2022-10-05T10:43:35.563Z,4.43
2022-10-05T10:46:23.138Z,3.80
2022-10-05T10:49:25.002Z,4.55
2022-10-05T10:52:39.302Z,4.80
2022-10-05T10:55:26.981Z,4.86
2022-10-05T10:57:58.905Z,4.88
2022-10-05T11:00:49.269Z,4.63
2022-10-05T11:03:50.918Z,5.03
2022-10-05T11:06:55.858Z,4.50
2022-10-05T11:09:36.700Z,4.35
2022-10-05T11:12:08.668Z,4.45
2022-10-05T11:15:05.834Z,5.20
2022-10-05T11:18:12.389Z,5.32
2022-10-05T11:20:50.048Z,4.38
2022-10-05T11:23:54.560Z,4.63
2022-10-05T11:26:28.775Z,4.68
2022-10-05T11:29:12.819Z,4.47
2022-10-05T11:32:11.676Z,4.40
2022-10-05T11:38:12.010Z,5.00
2022-10-05T11:41:23.095Z,4.28
2022-10-05T11:44:24.456Z,4.25
2022-10-05T11:47:01.829Z,4.80
2022-10-05T11:53:32.682Z,4.40
2022-10-05T11:56:15.796Z,4.95
2022-10-05T11:58:49.972Z,4.15
2022-10-05T12:01:28.912Z,4.72
2022-10-05T12:04:09.254Z,4.53
2022-10-05T12:06:56.947Z,5.00
2022-10-05T12:10:06.062Z,4.70
2022-10-05T12:12:53.420Z,4.97
2022-10-05T12:15:48.571Z,4.65
2022-10-05T12:18:31.782Z,4.70
2022-10-05T12:24:32.128Z,6.22
2022-10-05T12:27:23.657Z,5.82
2022-10-05T12:30:04.579Z,6.38
2022-10-05T12:32:58.126Z,7.55
2022-10-05T12:35:52.943Z,7.55
2022-10-05T12:38:35.283Z,8.35
2022-10-05T12:41:29.029Z,8.05
2022-10-05T12:44:23.846Z,8.27
2022-10-05T12:47:17.181Z,9.68
2022-10-05T12:50:25.337Z,11.23
2022-10-05T12:53:15.440Z,10.90
2022-10-05T12:56:06.873Z,11.00
2022-10-05T12:59:11.965Z,11.35
2022-10-05T13:01:59.812Z,12.40
2022-10-05T13:05:00.133Z,10.77
2022-10-05T13:07:29.900Z,12.07
2022-10-05T13:10:25.429Z,11.38
2022-10-05T13:13:22.173Z,11.60
2022-10-05T13:16:04.794Z,10.85
2022-10-05T13:18:52.212Z,11.00
2022-10-05T13:24:06.808Z,8.95
2022-10-05T13:26:45.000Z,8.52
2022-10-05T13:29:33.569Z,9.20
2022-10-05T13:32:21.316Z,8.73
2022-10-05T13:35:11.478Z,8.80
2022-10-05T13:37:50.819Z,8.93
2022-10-05T13:40:32.997Z,7.97
2022-10-05T13:43:13.878Z,7.60
2022-10-05T13:49:16.045Z,7.80
2022-10-05T13:51:52.832Z,8.05
2022-10-05T13:54:44.061Z,7.72
2022-10-05T13:57:35.988Z,7.21
2022-10-05T14:00:26.495Z,8.55
2022-10-05T14:02:58.284Z,6.88
2022-10-05T14:05:31.823Z,7.38
2022-10-05T14:08:03.597Z,7.97
2022-10-05T14:10:39.479Z,7.55
2022-10-05T14:13:41.999Z,7.00
2022-10-05T14:16:13.987Z,7.18
2022-10-05T14:18:56.484Z,8.30
2022-10-05T14:21:31.251Z,9.02
2022-10-05T14:24:42.323Z,7.70
2022-10-05T14:27:27.617Z,7.32
2022-10-05T14:30:03.318Z,6.28
2022-10-05T14:32:43.877Z,6.85
2022-10-05T14:35:18.806Z,8.27
2022-10-05T14:37:50.933Z,5.80
2022-10-05T14:40:33.399Z,6.82
2022-10-05T14:43:23.432Z,6.90
2022-10-05T14:45:58.417Z,8.13
2022-10-05T14:48:29.650Z,6.32
2022-10-05T14:51:03.987Z,7.35
2022-10-05T14:53:42.190Z,5.88
2022-10-05T14:56:34.255Z,6.60
2022-10-05T14:59:30.224Z,5.53
2022-10-05T15:02:14.955Z,6.30
2022-10-05T15:05:04.997Z,6.38
2022-10-05T15:07:57.651Z,6.72
2022-10-05T15:10:32.869Z,6.07
2022-10-05T15:13:24.516Z,5.63
2022-10-05T15:15:58.252Z,6.05
2022-10-05T15:19:06.915Z,5.55
2022-10-05T15:21:46.902Z,5.40
2022-10-05T15:24:26.840Z,5.20
2022-10-05T15:27:01.808Z,5.55
2022-10-05T15:29:35.606Z,5.20
2022-10-05T15:32:16.657Z,5.25
2022-10-05T15:35:28.583Z,5.30
2022-10-05T15:38:21.197Z,7.97
2022-10-05T15:41:20.286Z,7.40
2022-10-05T15:44:21.968Z,6.05
2022-10-05T15:47:06.886Z,5.82
2022-10-05T15:50:02.474Z,5.78
2022-10-05T15:52:47.408Z,6.07
2022-10-05T15:55:37.903Z,5.93
2022-10-05T15:58:23.244Z,6.18
2022-10-05T16:04:03.207Z,5.40
2022-10-05T16:06:57.229Z,6.90
2022-10-05T16:09:57.273Z,6.43
2022-10-05T16:12:44.733Z,6.22
2022-10-05T16:18:18.696Z,7.03
2022-10-05T16:21:25.400Z,7.53
2022-10-05T16:24:25.736Z,6.57
2022-10-05T16:27:17.363Z,7.45
2022-10-05T16:29:57.843Z,6.00
2022-10-05T16:33:19.246Z,5.97
2022-10-05T16:36:24.929Z,5.57
2022-10-05T16:38:59.574Z,5.80
2022-10-05T16:41:35.286Z,6.95
2022-10-05T16:44:41.188Z,6.38
2022-10-05T16:47:33.016Z,6.80
2022-10-05T16:50:27.358Z,5.90
2022-10-05T16:53:12.765Z,5.63
2022-10-05T16:55:49.175Z,5.65
2022-10-05T16:59:05.535Z,6.15
2022-10-05T17:01:44.086Z,5.78
2022-10-05T17:04:19.446Z,5.90
2022-10-05T17:07:06.525Z,7.15
2022-10-05T17:09:50.143Z,6.53
2022-10-05T17:12:32.296Z,6.30
2022-10-05T17:15:18.965Z,5.90
2022-10-05T17:18:24.219Z,6.25
2022-10-05T17:21:02.908Z,7.00
2022-10-05T17:23:55.261Z,6.15
2022-10-05T17:26:24.134Z,6.07
2022-10-05T17:29:00.303Z,6.72
2022-10-05T17:31:32.404Z,6.72
2022-10-05T17:34:11.044Z,5.88
2022-10-05T17:36:58.870Z,6.35
2022-10-05T17:39:57.261Z,6.68
2022-10-05T17:42:33.272Z,6.55
2022-10-05T17:45:12.874Z,5.78
2022-10-05T17:48:05.145Z,6.13
2022-10-05T17:51:08.585Z,5.45
2022-10-05T17:54:07.463Z,6.25
2022-10-05T17:56:45.525Z,6.28
2022-10-05T17:59:39.268Z,5.53
2022-10-05T18:02:42.185Z,6.88
2022-10-05T18:05:14.916Z,5.93
2022-10-05T18:07:51.250Z,6.18
2022-10-05T18:10:29.336Z,6.10
2022-10-05T18:13:01.385Z,5.82
2022-10-05T18:15:31.572Z,6.30
2022-10-05T18:18:33.845Z,6.45
2022-10-05T18:21:14.910Z,5.93
2022-10-05T18:24:24.223Z,5.57
2022-10-05T18:27:02.877Z,6.07
2022-10-05T18:30:01.046Z,5.88
2022-10-05T18:32:57.072Z,5.72
2022-10-05T18:35:33.470Z,5.70
2022-10-05T18:38:31.209Z,6.40
2022-10-05T18:41:11.195Z,6.03
2022-10-05T18:44:05.736Z,5.93
2022-10-05T18:46:52.849Z,6.03
2022-10-05T18:49:52.976Z,6.13
2022-10-05T18:52:41.647Z,5.80
2022-10-05T18:59:02.068Z,6.18
2022-10-05T19:08:29.847Z,6.88
2022-10-05T19:14:49.340Z,6.00
2022-10-05T19:21:16.819Z,6.15
2022-10-05T19:27:39.404Z,6.00
2022-10-05T19:30:24.033Z,5.90
2022-10-05T19:33:15.545Z,6.13
2022-10-05T19:36:02.850Z,5.88
2022-10-05T19:38:37.171Z,5.20
2022-10-05T19:41:27.816Z,5.20
2022-10-05T19:44:08.820Z,5.97
2022-10-05T19:46:48.392Z,6.30
2022-10-05T19:49:52.283Z,5.75
2022-10-05T19:52:28.929Z,5.72
2022-10-05T19:55:19.400Z,5.07
2022-10-05T19:57:56.540Z,5.43
2022-10-05T20:00:35.005Z,5.63
2022-10-05T20:03:23.819Z,5.55
2022-10-05T20:06:00.109Z,6.32
2022-10-05T20:08:47.870Z,6.03
2022-10-05T20:11:22.297Z,5.57
2022-10-05T20:13:54.370Z,5.15
2022-10-05T20:16:51.439Z,5.20
2022-10-05T20:19:54.032Z,5.88
2022-10-05T20:22:41.206Z,5.25
2022-10-05T20:25:19.183Z,5.10
2022-10-05T20:27:50.541Z,5.68
2022-10-05T20:30:21.898Z,6.30
2022-10-05T20:32:52.350Z,6.07
2022-10-05T20:35:25.610Z,5.75
2022-10-05T20:38:00.450Z,6.25
2022-10-05T20:40:30.952Z,5.93
2022-10-05T20:42:59.960Z,5.57
2022-10-05T20:45:28.910Z,5.40
2022-10-05T20:47:57.785Z,6.15
2022-10-05T20:50:27.938Z,5.18
2022-10-05T20:52:57.520Z,5.80
2022-10-05T20:55:31.782Z,6.05
2022-10-05T20:58:01.862Z,5.53
2022-10-05T21:00:50.810Z,5.28
2022-10-05T21:03:20.003Z,5.60
2022-10-05T21:05:53.782Z,5.57
2022-10-05T21:08:27.997Z,5.78
2022-10-05T21:11:09.870Z,5.57
2022-10-05T21:13:49.754Z,5.78
2022-10-05T21:16:19.469Z,5.93
2022-10-05T21:18:49.261Z,5.68
2022-10-05T21:21:22.312Z,6.03
2022-10-05T21:23:55.271Z,6.30
2022-10-05T21:26:24.102Z,6.32
2022-10-05T21:28:53.132Z,5.93
2022-10-05T21:31:22.011Z,5.90
2022-10-05T21:33:52.613Z,6.18
2022-10-05T21:36:32.620Z,6.00
2022-10-05T21:39:01.933Z,6.82
2022-10-05T21:41:30.730Z,5.97
2022-10-05T21:43:59.652Z,6.45
2022-10-05T21:46:29.952Z,5.97
2022-10-05T21:49:10.073Z,6.13
2022-10-05T21:51:39.919Z,6.63
2022-10-05T21:54:14.577Z,6.50
2022-10-05T21:56:48.708Z,5.90
2022-10-05T21:59:20.828Z,5.82
2022-10-05T22:01:49.638Z,5.97
2022-10-05T22:04:19.295Z,6.33
2022-10-05T22:06:49.570Z,6.00
2022-10-05T22:09:25.771Z,5.93
2022-10-05T22:11:55.248Z,5.93
2022-10-05T22:14:24.322Z,6.78
2022-10-05T22:16:53.634Z,6.40
2022-10-05T22:19:22.460Z,6.45
2022-10-05T22:21:51.419Z,5.95
2022-10-05T22:24:20.259Z,6.72
2022-10-05T22:26:51.940Z,6.43
2022-10-05T22:29:21.680Z,5.95
2022-10-05T22:31:50.673Z,6.57
2022-10-05T22:34:19.694Z,6.05
2022-10-05T22:36:49.101Z,6.00
2022-10-05T22:39:18.136Z,5.93
2022-10-05T22:41:47.211Z,6.70
2022-10-05T22:44:15.999Z,5.90
2022-10-05T22:46:44.969Z,6.30
2022-10-05T22:49:13.797Z,6.30
2022-10-05T22:51:43.100Z,6.00
2022-10-05T22:54:11.886Z,6.50
2022-10-05T22:56:40.618Z,6.30
2022-10-05T22:59:09.529Z,6.22
2022-10-05T23:01:38.428Z,7.18
2022-10-05T23:04:09.161Z,6.25
2022-10-05T23:06:38.056Z,6.72
2022-10-05T23:09:06.845Z,5.53
2022-10-05T23:11:47.045Z,6.40
2022-10-05T23:14:16.005Z,6.00
2022-10-05T23:16:44.965Z,6.10
2022-10-05T23:19:14.286Z,6.18
2022-10-05T23:21:43.193Z,6.28
2022-10-05T23:24:12.220Z,5.95
2022-10-05T23:26:41.021Z,6.50
2022-10-05T23:29:10.363Z,6.43
2022-10-05T23:31:39.284Z,6.13
2022-10-05T23:34:08.194Z,6.50
2022-10-05T23:36:37.072Z,6.68
2022-10-05T23:39:10.946Z,6.90
2022-10-05T23:41:40.346Z,6.00
2022-10-05T23:44:14.038Z,6.68
2022-10-05T23:46:53.079Z,6.72
2022-10-05T23:49:22.070Z,6.57
2022-10-05T23:52:00.533Z,6.57
2022-10-05T23:54:29.465Z,7.30
2022-10-05T23:56:58.307Z,7.40
2022-10-05T23:59:27.203Z,6.47
